createdAt,value
2018-06-17T00:01:25.176Z,98696.20
2018-06-17T00:03:53.259Z,98691.06
2018-06-17T00:06:22.500Z,98687.56
2018-06-17T00:08:50.784Z,98688.22
2018-06-17T00:11:19.080Z,98689.55
2018-06-17T00:13:47.556Z,98692.21
2018-06-17T00:16:15.743Z,98690.37
2018-06-17T00:18:43.828Z,98692.67
2018-06-17T00:21:12.110Z,98688.86
2018-06-17T00:23:40.247Z,98692.00
2018-06-17T00:26:08.365Z,98685.22
2018-06-17T00:28:37.122Z,98689.52
2018-06-17T00:31:05.472Z,98699.14
2018-06-17T00:33:34.188Z,98692.45
2018-06-17T00:36:02.584Z,98702.92
2018-06-17T00:38:31.981Z,98696.93
2018-06-17T00:41:00.169Z,98703.09
2018-06-17T00:43:30.173Z,98701.89
2018-06-17T00:45:58.256Z,98703.20
2018-06-17T00:48:26.718Z,98709.99
2018-06-17T00:50:55.745Z,98712.66
2018-06-17T00:53:23.844Z,98707.03
2018-06-17T00:55:52.081Z,98699.69
2018-06-17T00:58:20.134Z,98698.54
2018-06-17T01:00:48.212Z,98701.88
2018-06-17T01:03:16.296Z,98704.33
2018-06-17T01:05:44.389Z,98707.30
2018-06-17T01:08:12.501Z,98713.45
2018-06-17T01:10:40.867Z,98710.44
2018-06-17T01:13:08.912Z,98718.44
2018-06-17T01:15:37.064Z,98706.99
2018-06-17T01:18:05.667Z,98706.99
2018-06-17T01:20:33.771Z,98700.32
2018-06-17T01:23:01.868Z,98701.45
2018-06-17T01:25:29.977Z,98702.27
2018-06-17T01:27:59.129Z,98700.08
2018-06-17T01:30:27.548Z,98694.95
2018-06-17T01:32:55.888Z,98703.59
2018-06-17T01:35:24.776Z,98702.48
2018-06-17T01:37:52.880Z,98700.64
2018-06-17T01:40:20.961Z,98709.67
2018-06-17T01:42:49.044Z,98702.17
2018-06-17T01:45:17.428Z,98704.16
2018-06-17T01:47:45.495Z,98699.14
2018-06-17T01:50:13.598Z,98693.75
2018-06-17T01:52:41.671Z,98699.35
2018-06-17T01:55:09.964Z,98696.48
2018-06-17T01:57:38.089Z,98701.29
2018-06-17T02:00:06.938Z,98702.02
2018-06-17T02:02:35.092Z,98708.53
2018-06-17T02:05:09.269Z,98697.56
2018-06-17T02:07:42.642Z,98698.05
2018-06-17T02:10:16.178Z,98697.49
2018-06-17T02:12:45.333Z,98694.53
2018-06-17T02:15:13.633Z,98700.20
2018-06-17T02:17:42.532Z,98700.48
2018-06-17T02:20:10.648Z,98698.67
2018-06-17T02:22:38.859Z,98707.47
2018-06-17T02:25:07.944Z,98712.50
2018-06-17T02:27:36.123Z,98722.89
2018-06-17T02:30:04.516Z,98723.10
2018-06-17T02:32:33.251Z,98729.94
2018-06-17T02:35:01.364Z,98726.13
2018-06-17T02:37:29.558Z,98726.67
2018-06-17T02:39:57.875Z,98730.31
2018-06-17T02:42:26.160Z,98733.47
2018-06-17T02:44:59.600Z,98733.16
2018-06-17T02:47:32.955Z,98732.66
2018-06-17T02:51:04.921Z,98731.33
2018-06-17T02:53:38.357Z,98739.27
2018-06-17T02:56:06.435Z,98737.94
2018-06-17T02:58:34.524Z,98738.94
2018-06-17T03:01:02.932Z,98744.08
2018-06-17T03:03:31.049Z,98744.88
2018-06-17T03:05:59.176Z,98744.92
2018-06-17T03:08:27.646Z,98744.40
2018-06-17T03:10:55.766Z,98751.91
2018-06-17T03:13:25.533Z,98749.23
2018-06-17T03:15:54.025Z,98749.59
2018-06-17T03:18:22.116Z,98749.43
2018-06-17T03:20:50.260Z,98754.08
2018-06-17T03:23:18.695Z,98758.25
2018-06-17T03:25:52.049Z,98750.93
2018-06-17T03:28:25.615Z,98749.73
2018-06-17T03:30:59.035Z,98753.41
2018-06-17T03:33:32.724Z,98751.23
2018-06-17T03:36:06.268Z,98760.23
2018-06-17T03:38:34.381Z,98752.25
2018-06-17T03:41:02.452Z,98758.23
2018-06-17T03:43:30.756Z,98755.58
2018-06-17T03:45:59.634Z,98755.60
2018-06-17T03:48:27.775Z,98772.04
2018-06-17T03:50:58.501Z,98772.53
2018-06-17T03:53:26.808Z,98772.83
2018-06-17T03:55:54.952Z,98771.37
2018-06-17T03:58:23.294Z,98773.17
2018-06-17T04:00:51.944Z,98776.69
2018-06-17T04:03:20.102Z,98772.16
2018-06-17T04:05:48.172Z,98775.83
2018-06-17T04:08:16.898Z,98771.11
2018-06-17T04:10:45.146Z,98775.09
2018-06-17T04:13:13.400Z,98776.78
2018-06-17T04:15:41.944Z,98777.64
2018-06-17T04:18:11.117Z,98777.17
2018-06-17T04:20:39.584Z,98785.75
2018-06-17T04:23:10.477Z,98787.27
2018-06-17T04:25:38.622Z,98788.31
2018-06-17T04:28:06.699Z,98791.63
2018-06-17T04:30:34.792Z,98795.32
2018-06-17T04:33:02.890Z,98797.31
2018-06-17T04:35:31.268Z,98802.11
2018-06-17T04:37:59.380Z,98805.13
2018-06-17T04:40:27.773Z,98804.30
2018-06-17T04:42:56.061Z,98801.14
2018-06-17T04:45:24.247Z,98804.28
2018-06-17T04:47:52.475Z,98803.92
2018-06-17T04:50:20.697Z,98807.14
2018-06-17T04:52:49.011Z,98809.44
2018-06-17T04:55:17.076Z,98810.29
2018-06-17T04:57:45.164Z,98811.13
2018-06-17T05:00:13.479Z,98809.50
2018-06-17T05:02:41.552Z,98820.34
2018-06-17T05:05:10.626Z,98820.37
2018-06-17T05:07:38.788Z,98823.88
2018-06-17T05:10:07.040Z,98821.88
2018-06-17T05:12:35.123Z,98823.56
2018-06-17T05:15:03.438Z,98829.72
2018-06-17T05:17:31.509Z,98835.67
2018-06-17T05:20:01.159Z,98837.84
2018-06-17T05:22:29.224Z,98839.17
2018-06-17T05:24:57.413Z,98840.02
2018-06-17T05:27:25.554Z,98841.00
2018-06-17T05:29:53.731Z,98839.48
2018-06-17T05:32:21.888Z,98845.83
2018-06-17T05:34:49.980Z,98852.30
2018-06-17T05:37:18.032Z,98854.12
2018-06-17T05:39:46.104Z,98857.10
2018-06-17T05:42:15.538Z,98853.24
2018-06-17T05:44:43.897Z,98864.69
2018-06-17T05:47:12.103Z,98862.69
2018-06-17T05:49:40.216Z,98863.70
2018-06-17T05:52:08.331Z,98872.67
2018-06-17T05:54:37.404Z,98870.98
2018-06-17T05:57:05.524Z,98874.13
2018-06-17T05:59:33.635Z,98879.03
2018-06-17T06:02:01.736Z,98877.35
2018-06-17T06:04:29.789Z,98882.77
2018-06-17T06:06:57.951Z,98877.77
2018-06-17T06:09:26.045Z,98882.14
2018-06-17T06:11:54.950Z,98880.23
2018-06-17T06:14:25.161Z,98877.97
2018-06-17T06:16:53.299Z,98874.36
2018-06-17T06:19:21.468Z,98876.66
2018-06-17T06:21:49.702Z,98878.61
2018-06-17T06:24:17.868Z,98887.11
2018-06-17T06:26:46.022Z,98877.03
2018-06-17T06:29:14.157Z,98880.33
2018-06-17T06:31:42.245Z,98883.63
2018-06-17T06:34:10.333Z,98887.78
2018-06-17T06:36:38.616Z,98877.70
2018-06-17T06:39:08.357Z,98884.60
2018-06-17T06:41:36.443Z,98881.47
2018-06-17T06:44:04.640Z,98879.32
2018-06-17T06:46:32.776Z,98887.31
2018-06-17T06:49:00.855Z,98893.16
2018-06-17T06:51:29.149Z,98900.09
2018-06-17T06:53:57.406Z,98902.71
2018-06-17T06:56:25.698Z,98909.86
2018-06-17T06:58:53.828Z,98913.34
2018-06-17T07:01:33.335Z,98909.78
2018-06-17T07:04:12.801Z,98912.44
2018-06-17T07:06:52.024Z,98917.30
2018-06-17T07:09:32.031Z,98910.36
2018-06-17T07:12:00.460Z,98911.39
2018-06-17T07:14:28.781Z,98901.49
2018-06-17T07:17:08.192Z,98906.65
2018-06-17T07:19:36.507Z,98903.23
2018-06-17T07:22:05.436Z,98897.97
2018-06-17T07:24:33.563Z,98904.43
2018-06-17T07:27:13.080Z,98903.63
2018-06-17T07:29:46.040Z,98903.03
2018-06-17T07:32:14.279Z,98908.44
2018-06-17T07:34:42.700Z,98902.13
2018-06-17T07:37:11.099Z,98912.14
2018-06-17T07:49:48.180Z,98899.14
2018-06-17T07:52:29.036Z,98911.59
2018-06-17T07:54:57.584Z,98921.26
2018-06-17T07:57:27.041Z,98916.16
2018-06-17T07:59:56.053Z,98916.63
2018-06-17T08:02:24.289Z,98917.91
2018-06-17T08:04:52.860Z,98914.48
2018-06-17T08:07:22.024Z,98919.56
2018-06-17T08:09:50.154Z,98919.37
2018-06-17T08:12:18.327Z,98912.52
2018-06-17T08:14:46.595Z,98911.95
2018-06-17T08:17:14.699Z,98914.70
2018-06-17T08:19:43.436Z,98913.67
2018-06-17T08:22:11.803Z,98922.02
2018-06-17T08:24:40.212Z,98918.04
2018-06-17T08:27:08.717Z,98921.29
2018-06-17T08:29:37.729Z,98913.85
2018-06-17T08:32:06.005Z,98919.68
2018-06-17T08:34:34.385Z,98915.22
2018-06-17T08:37:02.561Z,98914.84
2018-06-17T08:39:30.931Z,98915.36
2018-06-17T08:41:59.279Z,98912.23
2018-06-17T08:44:27.597Z,98918.07
2018-06-17T08:46:55.807Z,98917.06
2018-06-17T08:49:23.856Z,98922.36
2018-06-17T08:51:51.957Z,98917.73
2018-06-17T08:54:20.464Z,98916.38
2018-06-17T08:56:49.603Z,98912.77
2018-06-17T08:59:17.711Z,98912.48
2018-06-17T09:01:45.779Z,98907.06
2018-06-17T09:04:13.991Z,98910.16
2018-06-17T09:06:42.282Z,98914.67
2018-06-17T09:09:11.776Z,98915.33
2018-06-17T09:11:39.864Z,98919.01
2018-06-17T09:14:07.964Z,98919.06
2018-06-17T09:16:36.239Z,98926.72
2018-06-17T09:19:04.354Z,98921.26
2018-06-17T09:23:59.874Z,98917.28
2018-06-17T09:26:27.976Z,98921.73
2018-06-17T09:28:56.202Z,98917.08
2018-06-17T09:31:25.415Z,98911.20
2018-06-17T09:33:53.880Z,98912.34
2018-06-17T09:36:22.121Z,98912.00
2018-06-17T09:38:50.526Z,98919.67
2018-06-17T09:41:18.696Z,98924.83
2018-06-17T09:43:46.778Z,98914.03
2018-06-17T09:46:14.876Z,98918.12
2018-06-17T09:48:42.947Z,98916.93
2018-06-17T09:51:11.024Z,98914.59
2018-06-17T09:53:39.120Z,98912.73
2018-06-17T09:56:07.404Z,98911.68
2018-06-17T09:58:35.783Z,98912.52
2018-06-17T10:01:03.856Z,98916.01
2018-06-17T10:03:32.125Z,98920.87
2018-06-17T10:06:00.295Z,98915.62
2018-06-17T10:08:28.367Z,98913.16
2018-06-17T10:10:58.747Z,98915.23
2018-06-17T10:13:28.846Z,98912.53
2018-06-17T10:15:57.660Z,98917.75
2018-06-17T10:18:25.975Z,98911.59
2018-06-17T10:20:54.104Z,98910.83
2018-06-17T10:23:22.333Z,98904.09
2018-06-17T10:25:50.507Z,98908.83
2018-06-17T10:28:19.188Z,98914.32
2018-06-17T10:30:48.568Z,98914.92
2018-06-17T10:33:16.719Z,98913.34
2018-06-17T10:35:45.564Z,98915.34
2018-06-17T10:38:13.656Z,98912.07
2018-06-17T10:40:41.756Z,98910.84
2018-06-17T10:43:44.625Z,98911.70
2018-06-17T10:46:12.749Z,98905.52
2018-06-17T10:48:40.825Z,98908.25
2018-06-17T10:51:08.908Z,98899.23
2018-06-17T10:53:36.975Z,98902.73
2018-06-17T10:56:05.231Z,98896.31
2018-06-17T10:58:33.258Z,98898.97
2018-06-17T11:01:01.469Z,98898.97
2018-06-17T11:03:29.536Z,98895.56
2018-06-17T11:05:58.828Z,98895.70
2018-06-17T11:08:26.907Z,98895.40
2018-06-17T11:10:55.008Z,98892.19
2018-06-17T11:13:23.127Z,98897.20
2018-06-17T11:15:51.203Z,98895.60
2018-06-17T11:18:19.283Z,98897.22
2018-06-17T11:20:47.626Z,98902.00
2018-06-17T11:23:15.707Z,98898.33
2018-06-17T11:25:43.760Z,98900.54
2018-06-17T11:28:11.835Z,98906.59
2018-06-17T11:30:40.231Z,98912.75
2018-06-17T11:33:08.603Z,98910.83
2018-06-17T11:35:36.724Z,98905.95
2018-06-17T11:38:04.823Z,98905.17
2018-06-17T11:40:32.998Z,98907.80
2018-06-17T11:43:01.092Z,98900.79
2018-06-17T11:45:29.161Z,98904.50
2018-06-17T11:47:57.248Z,98912.03
2018-06-17T11:50:25.428Z,98908.92
2018-06-17T11:52:53.514Z,98906.64
2018-06-17T11:55:21.587Z,98903.27
2018-06-17T11:57:49.658Z,98904.34
2018-06-17T12:00:17.756Z,98905.59
2018-06-17T12:02:45.831Z,98903.09
2018-06-17T12:05:14.023Z,98905.34
2018-06-17T12:07:42.056Z,98901.98
2018-06-17T12:10:10.140Z,98902.47
2018-06-17T12:12:38.218Z,98897.55
2018-06-17T12:15:06.370Z,98905.42
2018-06-17T12:17:34.615Z,98898.67
2018-06-17T12:20:02.733Z,98899.74
2018-06-17T12:22:31.287Z,98893.40
2018-06-17T12:24:59.556Z,98891.16
2018-06-17T12:27:27.806Z,98891.38
2018-06-17T12:29:56.089Z,98899.22
2018-06-17T12:32:24.399Z,98894.32
2018-06-17T12:34:52.472Z,98897.20
2018-06-17T12:37:21.048Z,98897.09
2018-06-17T12:39:49.142Z,98894.62
2018-06-17T12:42:17.199Z,98895.34
2018-06-17T12:44:45.567Z,98890.28
2018-06-17T12:47:13.648Z,98884.00
2018-06-17T12:49:42.029Z,98890.55
2018-06-17T12:52:10.134Z,98886.78
2018-06-17T12:54:38.363Z,98875.44
2018-06-17T12:57:06.435Z,98872.61
2018-06-17T12:59:34.516Z,98880.16
2018-06-17T13:02:02.613Z,98884.44
2018-06-17T13:04:30.815Z,98874.77
2018-06-17T13:06:58.926Z,98873.28
2018-06-17T13:09:27.021Z,98869.11
2018-06-17T13:11:55.107Z,98867.48
2018-06-17T13:14:23.261Z,98868.97
2018-06-17T13:16:51.642Z,98861.90
2018-06-17T13:19:19.735Z,98860.22
2018-06-17T13:21:47.825Z,98859.81
2018-06-17T13:24:16.244Z,98853.92
2018-06-17T13:26:45.183Z,98865.20
2018-06-17T13:29:13.267Z,98864.16
2018-06-17T13:31:41.364Z,98869.74
2018-06-17T13:34:09.530Z,98869.55
2018-06-17T13:36:37.876Z,98869.98
2018-06-17T13:39:07.419Z,98868.83
2018-06-17T13:41:35.627Z,98868.41
2018-06-17T13:44:03.829Z,98871.30
2018-06-17T13:46:31.987Z,98868.73
2018-06-17T13:49:00.047Z,98876.80
2018-06-17T13:51:28.150Z,98869.86
2018-06-17T13:53:56.411Z,98864.70
2018-06-17T13:56:24.504Z,98869.80
2018-06-17T13:58:52.705Z,98866.93
2018-06-17T14:01:20.912Z,98874.52
2018-06-17T14:03:49.108Z,98875.81
2018-06-17T14:06:17.296Z,98875.53
2018-06-17T14:08:46.256Z,98881.34
2018-06-17T14:11:14.437Z,98879.55
2018-06-17T14:13:42.654Z,98876.69
2018-06-17T14:16:10.757Z,98881.11
2018-06-17T14:18:38.995Z,98877.19
2018-06-17T14:21:07.245Z,98883.91
2018-06-17T14:23:35.419Z,98878.43
2018-06-17T14:26:03.504Z,98880.70
2018-06-17T14:28:31.802Z,98881.55
2018-06-17T14:30:59.982Z,98883.81
2018-06-17T14:33:28.258Z,98890.63
2018-06-17T14:35:56.532Z,98888.77
2018-06-17T14:38:24.602Z,98892.30
2018-06-17T14:40:58.001Z,98889.89
2018-06-17T14:43:31.505Z,98895.45
2018-06-17T14:46:05.110Z,98896.94
2018-06-17T14:48:38.742Z,98897.77
2018-06-17T14:51:12.284Z,98897.00
2018-06-17T14:53:40.367Z,98898.83
2018-06-17T14:56:08.469Z,98900.81
2018-06-17T14:58:36.566Z,98902.56
2018-06-17T15:01:04.737Z,98898.99
2018-06-17T15:03:32.929Z,98894.41
2018-06-17T15:06:01.117Z,98896.94
2018-06-17T15:08:29.233Z,98892.05
2018-06-17T15:10:57.464Z,98888.97
2018-06-17T15:13:25.572Z,98892.57
2018-06-17T15:15:53.701Z,98896.91
2018-06-17T15:18:21.889Z,98889.50
2018-06-17T15:20:50.025Z,98892.77
2018-06-17T15:23:18.357Z,98898.05
2018-06-17T15:25:46.832Z,98895.84
2018-06-17T15:28:14.980Z,98899.11
2018-06-17T15:30:43.084Z,98905.91
2018-06-17T15:33:16.436Z,98905.24
2018-06-17T15:35:49.964Z,98908.46
2018-06-17T15:38:23.350Z,98912.98
2018-06-17T15:40:56.796Z,98899.72
2018-06-17T15:43:25.684Z,98890.74
2018-06-17T15:45:53.812Z,98899.92
2018-06-17T15:48:21.909Z,98907.02
2018-06-17T15:50:50.161Z,98897.78
2018-06-17T15:53:18.199Z,98900.04
2018-06-17T15:55:46.408Z,98892.92
2018-06-17T15:58:14.709Z,98898.63
2018-06-17T16:00:42.787Z,98894.80
2018-06-17T16:03:11.148Z,98891.33
2018-06-17T16:05:39.257Z,98894.67
2018-06-17T16:08:08.081Z,98896.09
2018-06-17T16:10:36.268Z,98890.93
2018-06-17T16:13:10.336Z,98893.33
2018-06-17T16:15:43.702Z,98888.16
2018-06-17T16:18:17.147Z,98893.64
2018-06-17T16:20:50.502Z,98882.98
2018-06-17T16:23:18.776Z,98888.87
2018-06-17T16:25:46.828Z,98892.70
2018-06-17T16:28:15.086Z,98888.97
2018-06-17T16:30:43.226Z,98895.84
2018-06-17T16:33:11.307Z,98892.24
2018-06-17T16:35:39.376Z,98884.86
2018-06-17T16:38:07.476Z,98885.14
2018-06-17T16:40:35.592Z,98884.33
2018-06-17T16:43:03.669Z,98885.56
2018-06-17T16:45:31.756Z,98886.69
2018-06-17T16:47:59.944Z,98894.52
2018-06-17T16:50:28.136Z,98904.16
2018-06-17T16:53:01.495Z,98899.88
2018-06-17T16:55:36.102Z,98902.06
2018-06-17T16:58:09.664Z,98909.35
2018-06-17T17:00:37.877Z,98908.79
2018-06-17T17:03:06.196Z,98910.30
2018-06-17T17:05:34.513Z,98912.07
2018-06-17T17:08:02.975Z,98915.48
2018-06-17T17:10:31.687Z,98910.83
2018-06-17T17:12:59.913Z,98921.92
2018-06-17T17:15:46.364Z,98924.61
2018-06-17T17:21:22.860Z,98935.29
2018-06-17T17:23:50.933Z,98931.44
2018-06-17T17:26:19.260Z,98940.03
2018-06-17T17:28:50.807Z,98933.52
2018-06-17T17:31:18.896Z,98931.98
2018-06-17T17:33:52.335Z,98936.88
2018-06-17T17:36:26.048Z,98936.94
2018-06-17T17:38:59.383Z,98942.43
2018-06-17T17:41:27.484Z,98944.33
2018-06-17T17:43:55.620Z,98944.48
2018-06-17T17:46:28.968Z,98943.63
2018-06-17T17:48:57.085Z,98949.75
2018-06-17T17:51:26.164Z,98957.93
2018-06-17T17:53:54.313Z,98958.19
2018-06-17T17:56:22.359Z,98964.43
2018-06-17T17:58:50.443Z,98962.22
2018-06-17T18:01:18.881Z,98960.96
2018-06-17T18:03:46.972Z,98961.52
2018-06-17T18:06:15.073Z,98964.77
2018-06-17T18:08:43.161Z,98961.50
2018-06-17T18:11:11.255Z,98962.20
2018-06-17T18:13:39.324Z,98965.33
2018-06-17T18:16:07.651Z,98970.08
2018-06-17T18:18:37.831Z,98969.09
2018-06-17T18:21:06.842Z,98975.59
2018-06-17T18:23:35.407Z,98979.98
2018-06-17T18:26:08.783Z,98983.71
2018-06-17T18:28:42.312Z,98983.06
2018-06-17T18:31:10.425Z,98991.09
2018-06-17T18:33:43.936Z,98991.08
2018-06-17T18:36:14.224Z,98992.16
2018-06-17T18:38:44.384Z,98992.84
2018-06-17T18:41:15.342Z,98995.71
2018-06-17T18:43:44.447Z,98996.21
2018-06-17T18:46:13.709Z,99000.34
2018-06-17T18:48:41.942Z,99004.47
2018-06-17T18:51:10.296Z,99013.05
2018-06-17T18:53:38.625Z,99015.30
2018-06-17T18:56:06.771Z,99014.58
2018-06-17T18:58:34.895Z,99016.74
2018-06-17T19:01:02.961Z,99023.15
2018-06-17T19:03:31.053Z,99028.34
2018-06-17T19:05:59.162Z,99034.98
2018-06-17T19:08:32.525Z,99030.98
2018-06-17T19:11:06.204Z,99039.48
2018-06-17T19:13:39.603Z,99043.34
2018-06-17T19:16:15.044Z,99053.19
2018-06-17T19:18:43.122Z,99055.70
2018-06-17T19:21:11.613Z,99062.75
2018-06-17T19:23:39.797Z,99070.08
2018-06-17T19:26:08.152Z,99077.81
2018-06-17T19:28:36.260Z,99076.36
2018-06-17T19:31:04.721Z,99081.57
2018-06-17T19:33:34.064Z,99083.30
2018-06-17T19:36:02.220Z,99080.19
2018-06-17T19:38:30.451Z,99088.67
2018-06-17T19:40:58.667Z,99082.40
2018-06-17T19:43:26.826Z,99088.41
2018-06-17T19:45:55.137Z,99092.78
2018-06-17T19:48:23.232Z,99090.42
2018-06-17T19:50:56.642Z,99091.48
2018-06-17T19:53:30.216Z,99092.66
2018-06-17T19:56:04.088Z,99097.50
2018-06-17T19:59:37.487Z,99101.38
2018-06-17T20:02:05.614Z,99098.56
2018-06-17T20:04:34.184Z,99096.55
2018-06-17T20:07:02.255Z,99101.56
2018-06-17T20:09:30.326Z,99103.72
2018-06-17T20:11:58.795Z,99103.73
2018-06-17T20:14:28.750Z,99103.08
2018-06-17T20:16:56.851Z,99111.77
2018-06-17T20:19:25.194Z,99113.92
2018-06-17T20:21:53.288Z,99119.46
2018-06-17T20:24:21.375Z,99117.47
2018-06-17T20:26:49.453Z,99117.65
2018-06-17T20:29:18.136Z,99119.83
2018-06-17T20:31:51.521Z,99118.98
2018-06-17T20:35:25.380Z,99120.14
2018-06-17T20:37:58.913Z,99121.69
2018-06-17T20:40:32.416Z,99124.84
2018-06-17T20:43:05.966Z,99120.53
2018-06-17T20:45:35.344Z,99116.56
2018-06-17T20:48:03.434Z,99114.86
2018-06-17T20:50:31.540Z,99111.08
2018-06-17T20:52:59.630Z,99116.90
2018-06-17T20:55:27.844Z,99116.70
2018-06-17T20:57:56.058Z,99122.66
2018-06-17T21:00:24.681Z,99121.16
2018-06-17T21:02:52.843Z,99123.98
2018-06-17T21:05:20.939Z,99130.84
2018-06-17T21:07:49.816Z,99134.99
2018-06-17T21:10:17.903Z,99130.81
2018-06-17T21:12:45.980Z,99131.33
2018-06-17T21:15:17.107Z,99127.14
2018-06-17T21:17:45.499Z,99131.30
2018-06-17T21:20:18.795Z,99132.14
2018-06-17T21:22:52.357Z,99138.45
2018-06-17T21:25:27.639Z,99143.11
2018-06-17T21:27:57.421Z,99145.11
2018-06-17T21:30:25.508Z,99145.95
2018-06-17T21:32:53.575Z,99148.44
2018-06-17T21:35:21.689Z,99146.41
2018-06-17T21:37:49.775Z,99151.55
2018-06-17T21:40:18.017Z,99145.75
2018-06-17T21:42:46.664Z,99143.61
2018-06-17T21:45:14.894Z,99146.87
2018-06-17T21:47:43.678Z,99154.36
2018-06-17T21:50:14.883Z,99155.84
2018-06-17T21:52:43.648Z,99158.25
2018-06-17T21:55:12.976Z,99154.92
2018-06-17T21:57:41.052Z,99156.15
2018-06-17T22:02:41.941Z,99158.88
2018-06-17T22:05:10.017Z,99160.28
2018-06-17T22:07:43.503Z,99162.58
2018-06-17T22:10:16.960Z,99169.59
2018-06-17T22:12:50.504Z,99178.08
2018-06-17T22:15:23.952Z,99165.81
2018-06-17T22:17:55.193Z,99177.95
2018-06-17T22:20:23.276Z,99176.67
2018-06-17T22:22:51.368Z,99180.06
2018-06-17T22:25:19.592Z,99186.81
2018-06-17T22:27:47.772Z,99189.11
2018-06-17T22:30:16.300Z,99192.28
2018-06-17T22:32:44.380Z,99195.94
2018-06-17T22:35:12.612Z,99195.62
2018-06-17T22:37:40.863Z,99195.59
2018-06-17T22:40:09.689Z,99193.61
2018-06-17T22:42:38.957Z,99192.63
2018-06-17T22:45:07.388Z,99200.70
2018-06-17T22:47:40.799Z,99203.81
2018-06-17T22:50:09.596Z,99203.95
2018-06-17T22:52:49.892Z,99208.08
2018-06-17T22:55:18.057Z,99206.39
2018-06-17T22:57:52.511Z,99210.63
2018-06-17T23:00:26.036Z,99210.42
2018-06-17T23:02:59.680Z,99204.30
2018-06-17T23:05:33.034Z,99217.11
2018-06-17T23:08:06.448Z,99213.83
2018-06-17T23:10:34.534Z,99212.50
2018-06-17T23:13:02.606Z,99210.70
2018-06-17T23:15:30.699Z,99217.81
2018-06-17T23:17:58.820Z,99225.92
2018-06-17T23:20:27.217Z,99220.73
2018-06-17T23:22:56.341Z,99228.52
2018-06-17T23:25:25.125Z,99236.73
2018-06-17T23:27:53.264Z,99240.03
2018-06-17T23:30:21.364Z,99223.40
2018-06-17T23:32:49.464Z,99220.09
2018-06-17T23:35:18.679Z,99226.16
2018-06-17T23:37:46.864Z,99224.91
2018-06-17T23:40:14.948Z,99229.81
2018-06-17T23:42:43.401Z,99223.08
2018-06-17T23:45:11.588Z,99216.84
2018-06-17T23:48:45.125Z,99219.15
2018-06-17T23:51:18.601Z,99219.89
2018-06-17T23:53:52.128Z,99213.15
2018-06-17T23:56:20.456Z,99218.47
2018-06-17T23:58:48.540Z,99221.67
